sensor_id;sensor_type;location;lat;lon;timestamp;temperature;humidity
4615;DHT22;2320;51.362;6.946;2023-05-07T00:00:54;15.90;99.90
4615;DHT22;2320;51.362;6.946;2023-05-07T00:03:20;15.90;99.90
4615;DHT22;2320;51.362;6.946;2023-05-07T00:05:46;16.00;99.90
4615;DHT22;2320;51.362;6.946;2023-05-07T00:08:12;16.10;99.90
4615;DHT22;2320;51.362;6.946;2023-05-07T00:10:37;16.00;99.90
4615;DHT22;2320;51.362;6.946;2023-05-07T00:13:03;15.90;99.90
4615;DHT22;2320;51.362;6.946;2023-05-07T00:15:28;15.90;99.90
4615;DHT22;2320;51.362;6.946;2023-05-07T00:17:54;15.90;99.90
4615;DHT22;2320;51.362;6.946;2023-05-07T00:20:19;15.80;99.90
4615;DHT22;2320;51.362;6.946;2023-05-07T00:22:45;16.00;99.90
4615;DHT22;2320;51.362;6.946;2023-05-07T00:25:10;15.90;99.90
4615;DHT22;2320;51.362;6.946;2023-05-07T00:27:36;15.80;99.90
4615;DHT22;2320;51.362;6.946;2023-05-07T00:30:01;15.80;99.90
4615;DHT22;2320;51.362;6.946;2023-05-07T00:32:27;15.90;99.90
4615;DHT22;2320;51.362;6.946;2023-05-07T00:34:52;15.80;99.90
4615;DHT22;2320;51.362;6.946;2023-05-07T00:37:18;15.70;99.90
4615;DHT22;2320;51.362;6.946;2023-05-07T00:39:43;15.60;99.90
4615;DHT22;2320;51.362;6.946;2023-05-07T00:42:09;15.80;99.90
4615;DHT22;2320;51.362;6.946;2023-05-07T00:44:35;16.00;99.90
4615;DHT22;2320;51.362;6.946;2023-05-07T00:47:01;15.90;99.90
4615;DHT22;2320;51.362;6.946;2023-05-07T00:49:35;15.70;99.90
4615;DHT22;2320;51.362;6.946;2023-05-07T00:52:02;15.70;99.90
4615;DHT22;2320;51.362;6.946;2023-05-07T00:54:27;15.70;99.90
4615;DHT22;2320;51.362;6.946;2023-05-07T00:56:53;15.60;99.90
4615;DHT22;2320;51.362;6.946;2023-05-07T00:59:19;15.40;99.90
4615;DHT22;2320;51.362;6.946;2023-05-07T01:01:45;15.30;99.90
4615;DHT22;2320;51.362;6.946;2023-05-07T01:04:10;15.30;99.90
4615;DHT22;2320;51.362;6.946;2023-05-07T01:06:36;15.30;99.90
4615;DHT22;2320;51.362;6.946;2023-05-07T01:09:01;15.30;99.90
4615;DHT22;2320;51.362;6.946;2023-05-07T01:11:27;15.20;99.90
4615;DHT22;2320;51.362;6.946;2023-05-07T01:13:52;15.30;99.90
4615;DHT22;2320;51.362;6.946;2023-05-07T01:16:18;15.10;99.90
4615;DHT22;2320;51.362;6.946;2023-05-07T01:18:43;15.00;99.90
4615;DHT22;2320;51.362;6.946;2023-05-07T01:21:10;14.90;99.90
4615;DHT22;2320;51.362;6.946;2023-05-07T01:23:36;15.00;99.90
4615;DHT22;2320;51.362;6.946;2023-05-07T01:26:02;15.10;99.90
4615;DHT22;2320;51.362;6.946;2023-05-07T01:28:27;15.00;99.90
4615;DHT22;2320;51.362;6.946;2023-05-07T01:30:54;14.90;99.90
4615;DHT22;2320;51.362;6.946;2023-05-07T01:33:21;14.90;99.90
4615;DHT22;2320;51.362;6.946;2023-05-07T01:35:48;14.80;99.90
4615;DHT22;2320;51.362;6.946;2023-05-07T01:38:14;14.80;99.90
4615;DHT22;2320;51.362;6.946;2023-05-07T01:40:39;14.80;99.90
4615;DHT22;2320;51.362;6.946;2023-05-07T01:43:05;14.70;99.90
4615;DHT22;2320;51.362;6.946;2023-05-07T01:45:31;14.80;99.90
4615;DHT22;2320;51.362;6.946;2023-05-07T01:47:57;14.90;99.90
4615;DHT22;2320;51.362;6.946;2023-05-07T01:50:23;14.90;99.90
4615;DHT22;2320;51.362;6.946;2023-05-07T01:52:50;15.00;99.90
4615;DHT22;2320;51.362;6.946;2023-05-07T01:55:15;14.90;99.90
4615;DHT22;2320;51.362;6.946;2023-05-07T01:57:41;14.80;99.90
4615;DHT22;2320;51.362;6.946;2023-05-07T02:00:07;14.80;99.90
4615;DHT22;2320;51.362;6.946;2023-05-07T02:02:33;14.70;99.90
4615;DHT22;2320;51.362;6.946;2023-05-07T02:04:59;14.60;99.90
4615;DHT22;2320;51.362;6.946;2023-05-07T02:07:24;14.60;99.90
4615;DHT22;2320;51.362;6.946;2023-05-07T02:09:50;14.60;99.90
4615;DHT22;2320;51.362;6.946;2023-05-07T02:12:15;14.60;99.90
4615;DHT22;2320;51.362;6.946;2023-05-07T02:14:41;14.50;99.90
4615;DHT22;2320;51.362;6.946;2023-05-07T02:17:07;14.50;99.90
4615;DHT22;2320;51.362;6.946;2023-05-07T02:19:32;14.60;99.90
4615;DHT22;2320;51.362;6.946;2023-05-07T02:21:58;14.40;99.90
4615;DHT22;2320;51.362;6.946;2023-05-07T02:24:23;14.40;99.90
4615;DHT22;2320;51.362;6.946;2023-05-07T02:26:49;14.40;99.90
4615;DHT22;2320;51.362;6.946;2023-05-07T02:29:14;14.30;99.90
4615;DHT22;2320;51.362;6.946;2023-05-07T02:31:40;14.50;99.90
4615;DHT22;2320;51.362;6.946;2023-05-07T02:34:05;14.50;99.90
4615;DHT22;2320;51.362;6.946;2023-05-07T02:36:31;14.60;99.90
4615;DHT22;2320;51.362;6.946;2023-05-07T02:38:56;14.30;99.90
4615;DHT22;2320;51.362;6.946;2023-05-07T02:41:21;14.30;99.90
4615;DHT22;2320;51.362;6.946;2023-05-07T02:43:47;14.20;99.90
4615;DHT22;2320;51.362;6.946;2023-05-07T02:46:12;14.00;99.90
4615;DHT22;2320;51.362;6.946;2023-05-07T02:48:38;13.90;99.90
4615;DHT22;2320;51.362;6.946;2023-05-07T02:51:04;13.90;99.90
4615;DHT22;2320;51.362;6.946;2023-05-07T02:53:30;14.00;99.90
4615;DHT22;2320;51.362;6.946;2023-05-07T02:55:57;14.10;99.90
4615;DHT22;2320;51.362;6.946;2023-05-07T02:58:22;14.20;99.90
4615;DHT22;2320;51.362;6.946;2023-05-07T03:00:48;14.20;99.90
4615;DHT22;2320;51.362;6.946;2023-05-07T03:03:13;14.10;99.90
4615;DHT22;2320;51.362;6.946;2023-05-07T03:05:39;14.00;99.90
4615;DHT22;2320;51.362;6.946;2023-05-07T03:08:05;14.10;99.90
4615;DHT22;2320;51.362;6.946;2023-05-07T03:10:30;14.10;99.90
4615;DHT22;2320;51.362;6.946;2023-05-07T03:12:56;13.90;99.90
4615;DHT22;2320;51.362;6.946;2023-05-07T03:15:21;13.80;99.90
4615;DHT22;2320;51.362;6.946;2023-05-07T03:17:47;13.70;99.90
4615;DHT22;2320;51.362;6.946;2023-05-07T03:20:12;13.70;99.90
4615;DHT22;2320;51.362;6.946;2023-05-07T03:22:38;13.80;99.90
4615;DHT22;2320;51.362;6.946;2023-05-07T03:25:04;13.90;99.90
4615;DHT22;2320;51.362;6.946;2023-05-07T03:27:29;13.80;99.90
4615;DHT22;2320;51.362;6.946;2023-05-07T03:29:55;13.90;99.90
4615;DHT22;2320;51.362;6.946;2023-05-07T03:32:20;13.90;99.90
4615;DHT22;2320;51.362;6.946;2023-05-07T03:34:46;14.00;99.90
4615;DHT22;2320;51.362;6.946;2023-05-07T03:37:11;13.90;99.90
4615;DHT22;2320;51.362;6.946;2023-05-07T03:39:37;13.70;99.90
4615;DHT22;2320;51.362;6.946;2023-05-07T03:42:02;13.70;99.90
4615;DHT22;2320;51.362;6.946;2023-05-07T03:44:28;13.60;99.90
4615;DHT22;2320;51.362;6.946;2023-05-07T03:46:53;13.50;99.90
4615;DHT22;2320;51.362;6.946;2023-05-07T03:49:19;13.50;99.90
4615;DHT22;2320;51.362;6.946;2023-05-07T03:51:44;13.50;99.90
4615;DHT22;2320;51.362;6.946;2023-05-07T03:54:10;13.40;99.90
4615;DHT22;2320;51.362;6.946;2023-05-07T03:56:36;13.40;99.90
4615;DHT22;2320;51.362;6.946;2023-05-07T03:59:01;13.40;99.90
4615;DHT22;2320;51.362;6.946;2023-05-07T04:01:26;13.30;99.90
4615;DHT22;2320;51.362;6.946;2023-05-07T04:03:52;13.40;99.90
4615;DHT22;2320;51.362;6.946;2023-05-07T04:06:17;13.40;99.90
4615;DHT22;2320;51.362;6.946;2023-05-07T04:08:43;13.40;99.90
4615;DHT22;2320;51.362;6.946;2023-05-07T04:11:09;13.60;99.90
4615;DHT22;2320;51.362;6.946;2023-05-07T04:13:34;13.50;99.90
4615;DHT22;2320;51.362;6.946;2023-05-07T04:16:01;13.50;99.90
4615;DHT22;2320;51.362;6.946;2023-05-07T04:18:26;13.40;99.90
4615;DHT22;2320;51.362;6.946;2023-05-07T04:20:52;13.40;99.90
4615;DHT22;2320;51.362;6.946;2023-05-07T04:23:17;13.40;99.90
4615;DHT22;2320;51.362;6.946;2023-05-07T04:25:43;13.50;99.90
4615;DHT22;2320;51.362;6.946;2023-05-07T04:28:08;13.70;99.90
4615;DHT22;2320;51.362;6.946;2023-05-07T04:30:33;13.70;99.90
4615;DHT22;2320;51.362;6.946;2023-05-07T04:32:59;13.70;99.90
4615;DHT22;2320;51.362;6.946;2023-05-07T04:35:24;13.80;99.90
4615;DHT22;2320;51.362;6.946;2023-05-07T04:37:50;13.90;99.90
4615;DHT22;2320;51.362;6.946;2023-05-07T04:40:15;14.00;99.90
4615;DHT22;2320;51.362;6.946;2023-05-07T04:42:41;14.10;99.90
4615;DHT22;2320;51.362;6.946;2023-05-07T04:45:07;14.10;99.90
4615;DHT22;2320;51.362;6.946;2023-05-07T04:47:33;14.20;99.90
4615;DHT22;2320;51.362;6.946;2023-05-07T04:49:59;14.10;99.90
4615;DHT22;2320;51.362;6.946;2023-05-07T04:52:25;14.10;99.90
4615;DHT22;2320;51.362;6.946;2023-05-07T04:54:50;14.10;99.90
4615;DHT22;2320;51.362;6.946;2023-05-07T04:57:16;14.20;99.90
4615;DHT22;2320;51.362;6.946;2023-05-07T04:59:43;14.20;99.90
4615;DHT22;2320;51.362;6.946;2023-05-07T05:02:09;14.20;99.90
4615;DHT22;2320;51.362;6.946;2023-05-07T05:04:35;14.20;99.90
4615;DHT22;2320;51.362;6.946;2023-05-07T05:07:00;14.20;99.90
4615;DHT22;2320;51.362;6.946;2023-05-07T05:09:25;14.20;99.90
4615;DHT22;2320;51.362;6.946;2023-05-07T05:11:51;14.30;99.90
4615;DHT22;2320;51.362;6.946;2023-05-07T05:14:16;14.50;99.90
4615;DHT22;2320;51.362;6.946;2023-05-07T05:16:42;14.50;99.90
4615;DHT22;2320;51.362;6.946;2023-05-07T05:19:07;14.60;99.90
4615;DHT22;2320;51.362;6.946;2023-05-07T05:21:33;14.60;99.90
4615;DHT22;2320;51.362;6.946;2023-05-07T05:23:58;14.80;99.90
4615;DHT22;2320;51.362;6.946;2023-05-07T05:26:24;14.80;99.90
4615;DHT22;2320;51.362;6.946;2023-05-07T05:28:49;14.90;99.90
4615;DHT22;2320;51.362;6.946;2023-05-07T05:31:16;15.00;99.90
4615;DHT22;2320;51.362;6.946;2023-05-07T05:33:41;14.90;99.90
4615;DHT22;2320;51.362;6.946;2023-05-07T05:36:08;14.90;99.90
4615;DHT22;2320;51.362;6.946;2023-05-07T05:38:34;14.90;99.90
4615;DHT22;2320;51.362;6.946;2023-05-07T05:40:59;15.20;99.90
4615;DHT22;2320;51.362;6.946;2023-05-07T05:43:25;15.60;99.90
4615;DHT22;2320;51.362;6.946;2023-05-07T05:45:50;15.70;99.90
4615;DHT22;2320;51.362;6.946;2023-05-07T05:48:16;15.80;99.90
4615;DHT22;2320;51.362;6.946;2023-05-07T05:50:41;16.00;99.90
4615;DHT22;2320;51.362;6.946;2023-05-07T05:53:07;16.10;99.90
4615;DHT22;2320;51.362;6.946;2023-05-07T05:55:32;16.00;99.90
4615;DHT22;2320;51.362;6.946;2023-05-07T05:57:59;16.10;99.90
4615;DHT22;2320;51.362;6.946;2023-05-07T06:00:24;16.20;99.90
4615;DHT22;2320;51.362;6.946;2023-05-07T06:02:50;16.10;99.90
4615;DHT22;2320;51.362;6.946;2023-05-07T06:05:16;16.30;99.90
4615;DHT22;2320;51.362;6.946;2023-05-07T06:07:41;16.40;99.90
4615;DHT22;2320;51.362;6.946;2023-05-07T06:10:07;16.50;99.90
4615;DHT22;2320;51.362;6.946;2023-05-07T06:12:32;16.80;99.90
4615;DHT22;2320;51.362;6.946;2023-05-07T06:14:58;17.00;99.90
4615;DHT22;2320;51.362;6.946;2023-05-07T06:17:23;17.10;99.90
4615;DHT22;2320;51.362;6.946;2023-05-07T06:19:49;17.30;99.90
4615;DHT22;2320;51.362;6.946;2023-05-07T06:22:14;17.40;99.90
4615;DHT22;2320;51.362;6.946;2023-05-07T06:24:40;17.80;99.90
4615;DHT22;2320;51.362;6.946;2023-05-07T06:27:05;18.20;99.90
4615;DHT22;2320;51.362;6.946;2023-05-07T06:29:31;18.30;99.90
4615;DHT22;2320;51.362;6.946;2023-05-07T06:32:05;18.50;99.90
4615;DHT22;2320;51.362;6.946;2023-05-07T06:34:31;18.60;99.90
4615;DHT22;2320;51.362;6.946;2023-05-07T06:36:56;18.90;99.90
4615;DHT22;2320;51.362;6.946;2023-05-07T06:39:22;19.20;99.90
4615;DHT22;2320;51.362;6.946;2023-05-07T06:41:47;19.00;99.90
4615;DHT22;2320;51.362;6.946;2023-05-07T06:44:13;19.00;99.90
4615;DHT22;2320;51.362;6.946;2023-05-07T06:46:38;19.20;99.90
4615;DHT22;2320;51.362;6.946;2023-05-07T06:49:04;19.30;99.90
4615;DHT22;2320;51.362;6.946;2023-05-07T06:51:30;19.30;99.90
4615;DHT22;2320;51.362;6.946;2023-05-07T06:53:55;19.20;99.90
4615;DHT22;2320;51.362;6.946;2023-05-07T06:56:21;19.30;99.90
4615;DHT22;2320;51.362;6.946;2023-05-07T06:58:48;19.30;99.90
4615;DHT22;2320;51.362;6.946;2023-05-07T07:01:13;19.30;99.90
4615;DHT22;2320;51.362;6.946;2023-05-07T07:03:38;19.30;99.90
4615;DHT22;2320;51.362;6.946;2023-05-07T07:06:04;19.30;99.90
4615;DHT22;2320;51.362;6.946;2023-05-07T07:08:36;19.30;99.90
4615;DHT22;2320;51.362;6.946;2023-05-07T07:11:07;19.40;99.90
4615;DHT22;2320;51.362;6.946;2023-05-07T07:13:33;19.40;99.90
4615;DHT22;2320;51.362;6.946;2023-05-07T07:15:58;19.50;99.90
4615;DHT22;2320;51.362;6.946;2023-05-07T07:18:24;19.70;99.90
4615;DHT22;2320;51.362;6.946;2023-05-07T07:20:50;19.80;99.90
4615;DHT22;2320;51.362;6.946;2023-05-07T07:23:15;19.90;99.90
4615;DHT22;2320;51.362;6.946;2023-05-07T07:25:41;20.00;99.90
4615;DHT22;2320;51.362;6.946;2023-05-07T07:28:06;20.20;99.90
4615;DHT22;2320;51.362;6.946;2023-05-07T07:30:32;20.50;99.90
4615;DHT22;2320;51.362;6.946;2023-05-07T07:32:57;20.60;99.90
4615;DHT22;2320;51.362;6.946;2023-05-07T07:35:28;20.80;99.90
4615;DHT22;2320;51.362;6.946;2023-05-07T07:37:53;20.90;99.90
4615;DHT22;2320;51.362;6.946;2023-05-07T07:40:19;21.00;99.90
4615;DHT22;2320;51.362;6.946;2023-05-07T07:42:44;20.70;99.90
4615;DHT22;2320;51.362;6.946;2023-05-07T07:45:10;20.70;99.90
4615;DHT22;2320;51.362;6.946;2023-05-07T07:47:36;21.00;99.90
4615;DHT22;2320;51.362;6.946;2023-05-07T07:50:01;21.20;99.90
4615;DHT22;2320;51.362;6.946;2023-05-07T07:52:26;21.40;99.90
4615;DHT22;2320;51.362;6.946;2023-05-07T07:54:52;21.40;99.90
4615;DHT22;2320;51.362;6.946;2023-05-07T07:57:17;22.10;99.90
4615;DHT22;2320;51.362;6.946;2023-05-07T07:59:43;23.10;99.90
4615;DHT22;2320;51.362;6.946;2023-05-07T08:02:09;23.70;99.90
4615;DHT22;2320;51.362;6.946;2023-05-07T08:04:34;24.50;99.90
4615;DHT22;2320;51.362;6.946;2023-05-07T08:07:00;25.00;99.90
4615;DHT22;2320;51.362;6.946;2023-05-07T08:09:26;24.50;99.90
4615;DHT22;2320;51.362;6.946;2023-05-07T08:11:51;24.40;99.90
4615;DHT22;2320;51.362;6.946;2023-05-07T08:14:17;25.20;99.90
4615;DHT22;2320;51.362;6.946;2023-05-07T08:16:42;25.60;99.90
4615;DHT22;2320;51.362;6.946;2023-05-07T08:19:07;25.60;99.90
4615;DHT22;2320;51.362;6.946;2023-05-07T08:21:33;26.30;99.90
4615;DHT22;2320;51.362;6.946;2023-05-07T08:23:59;26.90;99.90
4615;DHT22;2320;51.362;6.946;2023-05-07T08:26:24;26.70;99.90
4615;DHT22;2320;51.362;6.946;2023-05-07T08:28:50;26.50;99.90
4615;DHT22;2320;51.362;6.946;2023-05-07T08:31:15;26.20;99.90
4615;DHT22;2320;51.362;6.946;2023-05-07T08:33:41;26.50;99.90
4615;DHT22;2320;51.362;6.946;2023-05-07T08:36:07;26.40;99.90
4615;DHT22;2320;51.362;6.946;2023-05-07T08:38:32;26.60;99.90
4615;DHT22;2320;51.362;6.946;2023-05-07T08:40:58;26.40;99.90
4615;DHT22;2320;51.362;6.946;2023-05-07T08:43:25;26.20;99.90
4615;DHT22;2320;51.362;6.946;2023-05-07T08:45:52;26.60;99.90
4615;DHT22;2320;51.362;6.946;2023-05-07T08:48:18;27.40;99.90
4615;DHT22;2320;51.362;6.946;2023-05-07T08:50:45;28.30;99.90
4615;DHT22;2320;51.362;6.946;2023-05-07T08:53:11;28.90;99.90
4615;DHT22;2320;51.362;6.946;2023-05-07T08:55:37;29.50;99.90
4615;DHT22;2320;51.362;6.946;2023-05-07T08:58:03;28.40;99.90
4615;DHT22;2320;51.362;6.946;2023-05-07T09:00:28;28.20;99.90
4615;DHT22;2320;51.362;6.946;2023-05-07T09:02:54;27.70;99.90
4615;DHT22;2320;51.362;6.946;2023-05-07T09:05:19;27.20;99.90
4615;DHT22;2320;51.362;6.946;2023-05-07T09:07:45;27.40;99.90
4615;DHT22;2320;51.362;6.946;2023-05-07T09:10:11;27.00;99.90
4615;DHT22;2320;51.362;6.946;2023-05-07T09:12:37;26.70;99.90
4615;DHT22;2320;51.362;6.946;2023-05-07T09:15:04;26.80;99.90
4615;DHT22;2320;51.362;6.946;2023-05-07T09:17:30;27.30;99.90
4615;DHT22;2320;51.362;6.946;2023-05-07T09:19:55;26.90;99.90
4615;DHT22;2320;51.362;6.946;2023-05-07T09:22:21;25.90;99.90
4615;DHT22;2320;51.362;6.946;2023-05-07T09:24:47;26.30;99.90
4615;DHT22;2320;51.362;6.946;2023-05-07T09:27:13;27.00;99.90
4615;DHT22;2320;51.362;6.946;2023-05-07T09:29:38;27.10;99.90
4615;DHT22;2320;51.362;6.946;2023-05-07T09:32:07;27.30;99.90
4615;DHT22;2320;51.362;6.946;2023-05-07T09:34:33;27.10;99.90
4615;DHT22;2320;51.362;6.946;2023-05-07T09:37:02;27.50;99.90
4615;DHT22;2320;51.362;6.946;2023-05-07T09:39:43;27.70;99.90
4615;DHT22;2320;51.362;6.946;2023-05-07T09:42:09;27.50;99.90
4615;DHT22;2320;51.362;6.946;2023-05-07T09:44:37;27.80;99.90
4615;DHT22;2320;51.362;6.946;2023-05-07T09:47:04;27.30;99.90
4615;DHT22;2320;51.362;6.946;2023-05-07T09:49:30;27.80;99.90
4615;DHT22;2320;51.362;6.946;2023-05-07T09:51:55;27.80;99.90
4615;DHT22;2320;51.362;6.946;2023-05-07T09:54:22;27.50;99.90
4615;DHT22;2320;51.362;6.946;2023-05-07T09:56:50;27.20;99.90
4615;DHT22;2320;51.362;6.946;2023-05-07T09:59:16;26.90;99.90
4615;DHT22;2320;51.362;6.946;2023-05-07T10:01:43;27.00;99.90
4615;DHT22;2320;51.362;6.946;2023-05-07T10:04:09;26.90;99.90
4615;DHT22;2320;51.362;6.946;2023-05-07T10:06:35;26.60;99.90
4615;DHT22;2320;51.362;6.946;2023-05-07T10:09:01;27.10;99.90
4615;DHT22;2320;51.362;6.946;2023-05-07T10:11:27;27.60;99.90
4615;DHT22;2320;51.362;6.946;2023-05-07T10:13:53;27.70;99.90
4615;DHT22;2320;51.362;6.946;2023-05-07T10:16:18;27.60;99.90
4615;DHT22;2320;51.362;6.946;2023-05-07T10:18:44;27.40;99.90
4615;DHT22;2320;51.362;6.946;2023-05-07T10:21:21;27.10;99.90
4615;DHT22;2320;51.362;6.946;2023-05-07T10:23:50;27.10;99.90
4615;DHT22;2320;51.362;6.946;2023-05-07T10:26:17;27.10;99.90
4615;DHT22;2320;51.362;6.946;2023-05-07T10:28:43;27.00;99.90
4615;DHT22;2320;51.362;6.946;2023-05-07T10:33:38;27.30;99.90
4615;DHT22;2320;51.362;6.946;2023-05-07T10:36:04;27.90;99.90
4615;DHT22;2320;51.362;6.946;2023-05-07T10:38:30;28.20;99.90
4615;DHT22;2320;51.362;6.946;2023-05-07T10:40:56;28.70;99.90
4615;DHT22;2320;51.362;6.946;2023-05-07T10:43:21;29.40;99.90
4615;DHT22;2320;51.362;6.946;2023-05-07T10:48:31;29.20;99.90
4615;DHT22;2320;51.362;6.946;2023-05-07T10:53:41;28.70;99.90
4615;DHT22;2320;51.362;6.946;2023-05-07T10:58:44;28.70;99.90
4615;DHT22;2320;51.362;6.946;2023-05-07T11:01:10;28.80;99.90
4615;DHT22;2320;51.362;6.946;2023-05-07T11:04:12;29.40;99.90
4615;DHT22;2320;51.362;6.946;2023-05-07T11:06:23;29.10;99.90
4615;DHT22;2320;51.362;6.946;2023-05-07T11:08:57;28.60;99.90
4615;DHT22;2320;51.362;6.946;2023-05-07T11:12:05;29.10;99.90
4615;DHT22;2320;51.362;6.946;2023-05-07T11:14:13;29.10;99.90
4615;DHT22;2320;51.362;6.946;2023-05-07T11:16:39;29.90;99.90
4615;DHT22;2320;51.362;6.946;2023-05-07T11:19:05;29.90;99.90
4615;DHT22;2320;51.362;6.946;2023-05-07T11:21:40;29.90;99.90
4615;DHT22;2320;51.362;6.946;2023-05-07T11:24:06;30.20;99.70
4615;DHT22;2320;51.362;6.946;2023-05-07T11:26:45;29.00;99.90
4615;DHT22;2320;51.362;6.946;2023-05-07T11:29:15;27.80;99.90
4615;DHT22;2320;51.362;6.946;2023-05-07T11:31:41;27.00;99.90
4615;DHT22;2320;51.362;6.946;2023-05-07T11:34:06;26.60;99.90
4615;DHT22;2320;51.362;6.946;2023-05-07T11:36:33;26.50;99.90
4615;DHT22;2320;51.362;6.946;2023-05-07T11:38:58;26.40;99.90
4615;DHT22;2320;51.362;6.946;2023-05-07T11:41:33;26.80;99.90
4615;DHT22;2320;51.362;6.946;2023-05-07T11:43:59;26.60;99.90
4615;DHT22;2320;51.362;6.946;2023-05-07T11:46:24;26.30;99.90
4615;DHT22;2320;51.362;6.946;2023-05-07T11:48:50;26.40;99.90
4615;DHT22;2320;51.362;6.946;2023-05-07T11:51:23;26.50;99.90
4615;DHT22;2320;51.362;6.946;2023-05-07T11:53:49;26.40;99.90
4615;DHT22;2320;51.362;6.946;2023-05-07T11:56:16;25.60;99.90
4615;DHT22;2320;51.362;6.946;2023-05-07T11:58:42;25.60;99.90
4615;DHT22;2320;51.362;6.946;2023-05-07T12:01:09;25.20;99.90
4615;DHT22;2320;51.362;6.946;2023-05-07T12:03:35;25.10;99.90
4615;DHT22;2320;51.362;6.946;2023-05-07T12:06:02;25.10;99.90
4615;DHT22;2320;51.362;6.946;2023-05-07T12:08:28;25.30;99.90
4615;DHT22;2320;51.362;6.946;2023-05-07T12:10:53;25.40;99.90
4615;DHT22;2320;51.362;6.946;2023-05-07T12:13:22;25.50;99.90
4615;DHT22;2320;51.362;6.946;2023-05-07T12:15:51;25.50;99.90
4615;DHT22;2320;51.362;6.946;2023-05-07T12:18:17;25.30;99.90
4615;DHT22;2320;51.362;6.946;2023-05-07T12:20:43;25.30;99.90
4615;DHT22;2320;51.362;6.946;2023-05-07T12:23:08;25.50;99.90
4615;DHT22;2320;51.362;6.946;2023-05-07T12:25:34;25.40;99.90
4615;DHT22;2320;51.362;6.946;2023-05-07T12:28:00;25.40;99.90
4615;DHT22;2320;51.362;6.946;2023-05-07T12:30:25;25.20;99.90
4615;DHT22;2320;51.362;6.946;2023-05-07T12:32:55;25.30;99.90
4615;DHT22;2320;51.362;6.946;2023-05-07T12:35:30;25.10;99.90
4615;DHT22;2320;51.362;6.946;2023-05-07T12:37:56;24.90;99.90
4615;DHT22;2320;51.362;6.946;2023-05-07T12:40:22;24.70;99.90
4615;DHT22;2320;51.362;6.946;2023-05-07T12:42:47;24.50;99.90
4615;DHT22;2320;51.362;6.946;2023-05-07T12:45:17;24.20;99.90
4615;DHT22;2320;51.362;6.946;2023-05-07T12:47:43;23.90;99.90
4615;DHT22;2320;51.362;6.946;2023-05-07T12:50:10;23.60;99.90
4615;DHT22;2320;51.362;6.946;2023-05-07T12:52:35;23.60;99.90
4615;DHT22;2320;51.362;6.946;2023-05-07T12:55:05;23.60;99.90
4615;DHT22;2320;51.362;6.946;2023-05-07T12:57:37;23.40;99.90
4615;DHT22;2320;51.362;6.946;2023-05-07T13:00:02;23.00;99.90
4615;DHT22;2320;51.362;6.946;2023-05-07T13:02:36;22.80;99.90
4615;DHT22;2320;51.362;6.946;2023-05-07T13:05:04;22.90;99.90
4615;DHT22;2320;51.362;6.946;2023-05-07T13:07:29;22.80;99.90
4615;DHT22;2320;51.362;6.946;2023-05-07T13:09:55;22.80;99.90
4615;DHT22;2320;51.362;6.946;2023-05-07T13:12:20;23.00;99.90
4615;DHT22;2320;51.362;6.946;2023-05-07T13:14:46;22.80;99.90
4615;DHT22;2320;51.362;6.946;2023-05-07T13:17:11;22.80;99.90
4615;DHT22;2320;51.362;6.946;2023-05-07T13:19:37;22.60;99.90
4615;DHT22;2320;51.362;6.946;2023-05-07T13:22:03;22.50;99.90
4615;DHT22;2320;51.362;6.946;2023-05-07T13:24:28;22.30;99.90
4615;DHT22;2320;51.362;6.946;2023-05-07T13:26:53;22.20;99.90
4615;DHT22;2320;51.362;6.946;2023-05-07T13:29:20;21.70;99.90
4615;DHT22;2320;51.362;6.946;2023-05-07T13:31:46;21.50;99.90
4615;DHT22;2320;51.362;6.946;2023-05-07T13:34:12;21.40;99.90
4615;DHT22;2320;51.362;6.946;2023-05-07T13:36:37;21.50;99.90
4615;DHT22;2320;51.362;6.946;2023-05-07T13:39:05;21.50;99.90
4615;DHT22;2320;51.362;6.946;2023-05-07T13:41:31;21.50;99.90
4615;DHT22;2320;51.362;6.946;2023-05-07T13:43:57;21.40;99.90
4615;DHT22;2320;51.362;6.946;2023-05-07T13:46:22;21.60;99.90
4615;DHT22;2320;51.362;6.946;2023-05-07T13:48:47;21.70;99.90
4615;DHT22;2320;51.362;6.946;2023-05-07T13:51:13;21.30;99.90
4615;DHT22;2320;51.362;6.946;2023-05-07T13:53:38;21.20;99.90
4615;DHT22;2320;51.362;6.946;2023-05-07T13:56:04;21.30;99.90
4615;DHT22;2320;51.362;6.946;2023-05-07T13:58:30;21.10;99.90
4615;DHT22;2320;51.362;6.946;2023-05-07T14:00:55;20.90;99.90
4615;DHT22;2320;51.362;6.946;2023-05-07T14:03:21;20.60;99.90
4615;DHT22;2320;51.362;6.946;2023-05-07T14:05:46;20.60;99.90
4615;DHT22;2320;51.362;6.946;2023-05-07T14:08:12;20.60;99.90
4615;DHT22;2320;51.362;6.946;2023-05-07T14:10:39;20.50;99.90
4615;DHT22;2320;51.362;6.946;2023-05-07T14:13:05;20.30;99.90
4615;DHT22;2320;51.362;6.946;2023-05-07T14:15:30;20.10;99.90
4615;DHT22;2320;51.362;6.946;2023-05-07T14:17:58;20.20;99.90
4615;DHT22;2320;51.362;6.946;2023-05-07T14:20:24;20.00;99.90
4615;DHT22;2320;51.362;6.946;2023-05-07T14:22:50;19.80;99.90
4615;DHT22;2320;51.362;6.946;2023-05-07T14:25:15;19.60;99.90
4615;DHT22;2320;51.362;6.946;2023-05-07T14:27:41;19.30;99.90
4615;DHT22;2320;51.362;6.946;2023-05-07T14:30:06;19.20;99.90
4615;DHT22;2320;51.362;6.946;2023-05-07T14:32:32;18.90;99.90
4615;DHT22;2320;51.362;6.946;2023-05-07T14:34:58;18.30;99.90
4615;DHT22;2320;51.362;6.946;2023-05-07T14:37:23;18.30;99.90
4615;DHT22;2320;51.362;6.946;2023-05-07T14:39:49;18.30;99.90
4615;DHT22;2320;51.362;6.946;2023-05-07T14:42:14;18.30;99.90
4615;DHT22;2320;51.362;6.946;2023-05-07T14:44:40;18.20;99.90
4615;DHT22;2320;51.362;6.946;2023-05-07T14:47:06;18.20;99.90
4615;DHT22;2320;51.362;6.946;2023-05-07T14:49:33;18.20;99.90
4615;DHT22;2320;51.362;6.946;2023-05-07T14:51:58;18.00;99.90
4615;DHT22;2320;51.362;6.946;2023-05-07T14:54:27;17.90;99.90
4615;DHT22;2320;51.362;6.946;2023-05-07T14:56:52;17.90;99.90
4615;DHT22;2320;51.362;6.946;2023-05-07T14:59:18;17.90;99.90
4615;DHT22;2320;51.362;6.946;2023-05-07T15:01:49;17.80;99.90
4615;DHT22;2320;51.362;6.946;2023-05-07T15:04:14;17.70;99.90
4615;DHT22;2320;51.362;6.946;2023-05-07T15:06:40;17.80;99.90
4615;DHT22;2320;51.362;6.946;2023-05-07T15:09:06;17.80;99.90
4615;DHT22;2320;51.362;6.946;2023-05-07T15:11:33;17.80;99.90
4615;DHT22;2320;51.362;6.946;2023-05-07T15:13:58;17.80;99.90
4615;DHT22;2320;51.362;6.946;2023-05-07T15:16:24;17.80;99.90
4615;DHT22;2320;51.362;6.946;2023-05-07T15:18:49;17.80;99.90
4615;DHT22;2320;51.362;6.946;2023-05-07T15:21:15;17.70;99.90
4615;DHT22;2320;51.362;6.946;2023-05-07T15:23:41;17.80;99.90
4615;DHT22;2320;51.362;6.946;2023-05-07T15:26:06;18.00;99.90
4615;DHT22;2320;51.362;6.946;2023-05-07T15:28:33;18.00;99.90
4615;DHT22;2320;51.362;6.946;2023-05-07T15:30:58;18.10;99.90
4615;DHT22;2320;51.362;6.946;2023-05-07T15:33:24;18.00;99.90
4615;DHT22;2320;51.362;6.946;2023-05-07T15:35:50;18.20;99.90
4615;DHT22;2320;51.362;6.946;2023-05-07T15:38:15;18.20;99.90
4615;DHT22;2320;51.362;6.946;2023-05-07T15:40:41;18.50;99.90
4615;DHT22;2320;51.362;6.946;2023-05-07T15:43:07;18.50;99.90
4615;DHT22;2320;51.362;6.946;2023-05-07T15:45:33;18.60;99.90
4615;DHT22;2320;51.362;6.946;2023-05-07T15:48:03;18.70;99.90
4615;DHT22;2320;51.362;6.946;2023-05-07T15:50:28;18.80;99.90
4615;DHT22;2320;51.362;6.946;2023-05-07T15:52:54;18.40;99.90
4615;DHT22;2320;51.362;6.946;2023-05-07T15:55:19;18.40;99.90
4615;DHT22;2320;51.362;6.946;2023-05-07T15:57:45;18.30;99.90
4615;DHT22;2320;51.362;6.946;2023-05-07T16:00:11;18.30;99.90
4615;DHT22;2320;51.362;6.946;2023-05-07T16:02:38;18.20;99.90
4615;DHT22;2320;51.362;6.946;2023-05-07T16:05:05;18.20;99.90